| time (UTC) | temp C | wind direction | speed KPH | gust KPH | rain 1hr cm | rain 24hr cm | rain mn cm | humidity % | barometer mb |
| 20260903073419 | 21 | 248 | 0.0 | 4.8 | 0.25 | 3.84 | 0.38 | 93 | 1015.0 |
| 20260903072913 | 21 | 45 | 0.0 | 3.2 | 0.38 | 3.84 | 0.38 | 93 | 1014.9 |
| 20260903072408 | 21 | 292 | 0.0 | 3.2 | 0.36 | 3.81 | 0.36 | 93 | 1014.8 |
| 20260903072132 | 21 | 263 | 0.0 | 4.8 | 0.33 | 3.78 | 0.33 | 93 | 1014.9 |
| 20260903071355 | 21 | 283 | 0.0 | 4.8 | 0.33 | 3.78 | 0.33 | 93 | 1014.7 |
| 20260903070848 | 21 | 309 | 0.0 | 3.2 | 0.33 | 3.78 | 0.33 | 93 | 1014.7 |
| 20260903070343 | 21 | 214 | 0.0 | 0.0 | 0.33 | 3.78 | 0.33 | 93 | 1014.9 |
| 20260903065836 | 20 | 194 | 1.6 | 8.0 | 0.33 | 3.78 | 0.33 | 93 | 1015.0 |
| 20260903065331 | 20 | 154 | 3.2 | 16.1 | 0.33 | 3.78 | 0.33 | 93 | 1015.0 |
| 20260903064825 | 20 | 166 | 6.4 | 22.5 | 0.33 | 3.78 | 0.33 | 93 | 1015.3 |
| 20260903064319 | 20 | 191 | 9.7 | 27.4 | 0.30 | 3.76 | 0.30 | 92 | 1016.0 |
| 20260903063812 | 20 | 229 | 12.9 | 30.6 | 0.23 | 3.68 | 0.25 | 91 | 1016.2 |
| 20260903063308 | 21 | 297 | 11.3 | 30.6 | 0.05 | 3.51 | 0.05 | 92 | 1015.8 |
| 20260903062801 | 22 | 321 | 4.8 | 20.9 | 0.00 | 3.45 | 0.00 | 93 | 1014.9 |
| 20260903062255 | 22 | 304 | 1.6 | 8.0 | 0.00 | 3.45 | 0.00 | 94 | 1015.1 |
| 20260903061748 | 22 | 264 | 0.0 | 1.6 | 0.00 | 3.45 | 0.00 | 94 | 1014.8 |
| 20260903061242 | 22 | 139 | 0.0 | 0.0 | 0.00 | 3.45 | 0.00 | 93 | 1014.8 |
| 20260903060737 | 21 | 138 | 0.0 | 0.0 | 0.00 | 3.45 | 0.00 | 93 | 1014.6 |
| 20260903060230 | 21 | 138 | 0.0 | 0.0 | 0.00 | 3.45 | 0.00 | 93 | 1014.8 |
| 20260903055725 | 21 | 138 | 0.0 | 0.0 | 0.00 | 3.45 | 0.00 | 93 | 1014.7 |
| 20260903055219 | 21 | 138 | 0.0 | 0.0 | 0.00 | 3.45 | 0.00 | 93 | 1014.8 |
| 20260903054712 | 21 | 138 | 0.0 | 0.0 | 0.00 | 3.45 | 0.00 | 93 | 1014.9 |
| 20260903054207 | 21 | 138 | 0.0 | 0.0 | 0.00 | 3.45 | 0.00 | 93 | 1015.0 |
| 20260903053701 | 21 | 138 | 0.0 | 0.0 | 0.00 | 3.45 | 0.00 | 93 | 1015.0 |
| 20260903053155 | 21 | 138 | 0.0 | 1.6 | 0.00 | 3.45 | 0.00 | 93 | 1015.1 |
| 20260903052649 | 21 | 165 | 0.0 | 1.6 | 0.00 | 3.45 | 0.00 | 93 | 1015.2 |
| 20260903052413 | 21 | 58 | 0.0 | 1.6 | 0.00 | 3.45 | 0.00 | 93 | 1015.1 |
| 20260903051637 | 21 | 52 | 0.0 | 1.6 | 0.00 | 3.45 | 0.00 | 93 | 1014.9 |
| 20260903051131 | 21 | 55 | 0.0 | 4.8 | 0.00 | 3.45 | 0.00 | 93 | 1014.9 |
| 20260903050625 | 21 | 302 | 0.0 | 4.8 | 0.00 | 3.45 | 0.00 | 93 | 1015.1 |
| 20260903050125 | 21 | 278 | 1.6 | 6.4 | 0.00 | 3.45 | 0.00 | 93 | 1014.9 |
| 20260903045629 | 21 | 241 | 1.6 | 9.7 | 0.03 | 3.45 | 0.00 | 93 | 1015.2 |
| 20260903045625 | 21 | 227 | 1.6 | 8.0 | 0.00 | 3.45 | 0.00 | 93 | 1015.3 |
| 20260903044624 | 21 | 226 | 1.6 | 9.7 | 0.10 | 3.45 | 0.00 | 93 | 1015.2 |
| 20260903044122 | 21 | 230 | 1.6 | 12.9 | 0.15 | 3.45 | 0.00 | 93 | 1015.2 |
| 20260903043623 | 21 | 231 | 3.2 | 12.9 | 0.20 | 3.45 | 0.00 | 93 | 1015.1 |
| 20260903043122 | 21 | 262 | 4.8 | 12.9 | 0.25 | 3.45 | 0.00 | 93 | 1015.4 |
| 20260903042622 | 21 | 247 | 4.8 | 11.3 | 0.28 | 3.45 | 0.00 | 93 | 1015.1 |
| 20260903042121 | 21 | 251 | 3.2 | 9.7 | 0.30 | 3.45 | 0.00 | 93 | 1015.2 |
| 20260903041859 | 21 | 267 | 0.0 | 4.8 | 0.94 | 3.45 | 0.00 | 92 | 1014.9 |
| 20260903041623 | 21 | 282 | 1.6 | 6.4 | 0.58 | 3.45 | 0.00 | 92 | 1015.1 |
| 20260903040623 | 21 | 159 | 0.0 | 3.2 | 1.47 | 3.45 | 0.00 | 92 | 1015.2 |
| 20260903040120 | 21 | 105 | 1.6 | 9.7 | 1.91 | 3.45 | 0.00 | 92 | 1015.4 |
| 20260903035620 | 21 | 309 | 1.6 | 9.7 | 2.36 | 3.45 | 3.45 | 92 | 1015.7 |
| 20260903035119 | 21 | 158 | 1.6 | 6.4 | 3.05 | 3.43 | 3.45 | 92 | 1015.0 |
| 20260903034617 | 21 | 247 | 4.8 | 12.9 | 3.35 | 3.35 | 3.38 | 92 | 1015.3 |
| 20260903034115 | 21 | 240 | 6.4 | 16.1 | 3.30 | 3.30 | 3.30 | 91 | 1015.7 |
| 20260903033616 | 21 | 231 | 6.4 | 19.3 | 3.25 | 3.25 | 3.25 | 91 | 1015.7 |
| 20260903033342 | 21 | 244 | 8.0 | 19.3 | 3.20 | 3.20 | 3.20 | 91 | 1015.9 |
| 20260903032604 | 22 | 231 | 8.0 | 17.7 | 3.17 | 3.17 | 3.17 | 91 | 1015.7 |
| 20260903032332 | 22 | 269 | 11.3 | 33.8 | 3.15 | 3.15 | 3.15 | 90 | 1015.4 |
| 20260903031600 | 22 | 238 | 14.5 | 33.8 | 2.87 | 2.87 | 2.87 | 89 | 1016.1 |
| 20260903031101 | 23 | 200 | 11.3 | 30.6 | 2.44 | 2.44 | 2.49 | 87 | 1016.2 |
| 20260903030558 | 23 | 290 | 4.8 | 19.3 | 1.98 | 1.98 | 1.98 | 86 | 1014.9 |
| 20260903030331 | 23 | 76 | 4.8 | 17.7 | 1.42 | 1.42 | 1.52 | 84 | 1014.5 |
| 20260903025559 | 25 | 250 | 4.8 | 17.7 | 0.94 | 0.94 | 1.04 | 80 | 1015.0 |
| 20260903025055 | 25 | 76 | 1.6 | 9.7 | 0.18 | 0.18 | 0.30 | 77 | 1014.7 |
| 20260903024554 | 26 | 88 | 3.2 | 16.1 | 0.00 | 0.00 | 0.00 | 75 | 1014.1 |
| 20260903024054 | 26 | 58 | 4.8 | 19.3 | 0.00 | 0.00 | 0.00 | 74 | 1013.6 |
| 20260903023554 | 27 | 65 | 3.2 | 19.3 | 0.00 | 0.00 | 0.00 | 71 | 1013.3 |
| 20260903023055 | 28 | 37 | 3.2 | 14.5 | 0.00 | 0.00 | 0.00 | 69 | 1013.5 |
| 20260903022553 | 29 | 53 | 3.2 | 14.5 | 0.00 | 0.00 | 0.00 | 65 | 1013.4 |
| 20260903022054 | 30 | 65 | 1.6 | 14.5 | 0.00 | 0.00 | 0.00 | 64 | 1013.6 |
| 20260903021553 | 31 | 302 | 1.6 | 8.0 | 0.00 | 0.00 | 0.00 | 66 | 1013.6 |
| 20260903021053 | 31 | 269 | 1.6 | 8.0 | 0.00 | 0.00 | 0.00 | 66 | 1013.7 |
| 20260903020554 | 31 | 278 | 3.2 | 6.4 | 0.00 | 0.00 | 0.00 | 65 | 1013.8 |
| 20260903020050 | 31 | 252 | 3.2 | 8.0 | 0.00 | 0.00 | 0.00 | 65 | 1014.0 |
| 20260903015549 | 31 | 233 | 1.6 | 8.0 | 0.00 | 0.00 | 0.00 | 65 | 1014.0 |
| 20260903015047 | 31 | 262 | 0.0 | 4.8 | 0.00 | 0.00 | 0.00 | 65 | 1014.0 |
| 20260903014549 | 31 | 257 | 1.6 | 6.4 | 0.00 | 0.00 | 0.00 | 65 | 1013.8 |
| 20260903014048 | 31 | 233 | 1.6 | 6.4 | 0.00 | 0.00 | 0.00 | 64 | 1013.8 |
| 20260903013547 | 31 | 210 | 1.6 | 8.0 | 0.00 | 0.00 | 0.00 | 64 | 1013.8 |
| 20260903013043 | 31 | 252 | 1.6 | 9.7 | 0.00 | 0.00 | 0.00 | 64 | 1013.7 |
| 20260903012545 | 31 | 278 | 1.6 | 9.7 | 0.00 | 0.00 | 0.00 | 64 | 1013.7 |
| 20260903012043 | 31 | 219 | 0.0 | 4.8 | 0.00 | 0.00 | 0.00 | 63 | 1013.7 |
| 20260903011543 | 31 | 145 | 1.6 | 8.0 | 0.00 | 0.00 | 0.00 | 63 | 1013.8 |
| 20260903011316 | 31 | 248 | 0.0 | 8.0 | 0.00 | 0.00 | 0.00 | 62 | 1013.8 |
| 20260903010543 | 31 | 169 | 1.6 | 6.4 | 0.00 | 0.00 | 0.00 | 62 | 1013.7 |
| 20260903010043 | 32 | 235 | 0.0 | 6.4 | 0.00 | 0.00 | 0.00 | 62 | 1013.6 |
| 20260903005544 | 32 | 259 | 1.6 | 11.3 | 0.00 | 0.00 | 0.00 | 61 | 1013.6 |
| 20260903005314 | 32 | 205 | 1.6 | 11.3 | 0.00 | 0.00 | 0.00 | 60 | 1013.5 |
| 20260903004539 | 32 | 250 | 1.6 | 8.0 | 0.00 | 0.00 | 0.00 | 60 | 1013.6 |
| 20260903004039 | 32 | 219 | 0.0 | 6.4 | 0.00 | 0.00 | 0.00 | 59 | 1013.5 |
| 20260903003539 | 32 | 214 | 1.6 | 6.4 | 0.00 | 0.00 | 0.00 | 58 | 1013.5 |
| 20260903003034 | 32 | 269 | 1.6 | 9.7 | 0.00 | 0.00 | 0.00 | 58 | 1013.4 |
| 20260903002528 | 32 | 217 | 1.6 | 9.7 | 0.00 | 0.00 | 0.00 | 58 | 1013.3 |
| 20260903002021 | 32 | 250 | 1.6 | 6.4 | 0.00 | 0.00 | 0.00 | 58 | 1013.3 |
| 20260903001515 | 33 | 243 | 1.6 | 6.4 | 0.00 | 0.00 | 0.00 | 57 | 1013.2 |
| 20260903001010 | 33 | 247 | 3.2 | 11.3 | 0.00 | 0.00 | 0.00 | 57 | 1013.1 |
| 20260903000503 | 33 | 266 | 6.4 | 16.1 | 0.00 | 0.00 | 0.00 | 57 | 1013.2 |
| 20260902235957 | 33 | 249 | 6.4 | 16.1 | 0.00 | 0.00 | 0.00 | 57 | 1013.3 |
| 20260902235723 | 33 | 255 | 6.4 | 16.1 | 0.00 | 0.00 | 0.00 | 56 | 1013.4 |
| 20260902235216 | 33 | 257 | 6.4 | 17.7 | 0.00 | 0.00 | 0.00 | 56 | 1013.4 |
| 20260902234439 | 33 | 290 | 9.7 | 20.9 | 0.00 | 0.00 | 0.00 | 56 | 1013.5 |
| 20260902234428 | 34 | 255 | 6.4 | 19.3 | 0.00 | 0.00 | 0.00 | 54 | 1013.6 |
| 20260902234423 | 33 | 223 | 4.8 | 12.9 | 0.00 | 0.00 | 0.00 | 55 | 1013.5 |
| 20260902234317 | 33 | 286 | 9.7 | 24.1 | 0.00 | 0.00 | 0.00 | 55 | 1013.5 |
| 20260902234208 | 33 | 252 | 8.0 | 24.1 | 0.00 | 0.00 | 0.00 | 55 | 1013.5 |
| 20260902234059 | 33 | 235 | 4.8 | 20.9 | 0.00 | 0.00 | 0.00 | 55 | 1013.6 |
| 20260902232140 | 34 | 255 | 6.4 | 19.3 | 0.00 | 0.00 | 0.00 | 54 | 1013.6 |
| 20260902231404 | 34 | 244 | 8.0 | 19.3 | 0.00 | 0.00 | 0.00 | 54 | 1013.6 |
| 20260902230858 | 33 | 267 | 8.0 | 22.5 | 0.00 | 0.00 | 0.00 | 54 | 1013.6 |
| 20260902230352 | 33 | 248 | 8.0 | 22.5 | 0.00 | 0.00 | 0.00 | 54 | 1013.5 |
| 20260902225845 | 33 | 281 | 8.0 | 27.4 | 0.00 | 0.00 | 0.00 | 53 | 1013.4 |
| 20260902225340 | 34 | 271 | 9.7 | 27.4 | 0.00 | 0.00 | 0.00 | 52 | 1013.2 |
| 20260902224834 | 34 | 275 | 8.0 | 29.0 | 0.00 | 0.00 | 0.00 | 52 | 1013.2 |
| 20260902224328 | 34 | 257 | 8.0 | 29.0 | 0.00 | 0.00 | 0.00 | 52 | 1013.2 |
| 20260902223822 | 34 | 178 | 8.0 | 20.9 | 0.00 | 0.00 | 0.00 | 52 | 1013.1 |
| 20260902223546 | 34 | 251 | 8.0 | 20.9 | 0.00 | 0.00 | 0.00 | 52 | 1013.2 |
| 20260902222810 | 35 | 238 | 9.7 | 22.5 | 0.00 | 0.00 | 0.00 | 52 | 1013.2 |
| 20260902222530 | 35 | 289 | 11.3 | 29.0 | 0.00 | 0.00 | 0.00 | 51 | 1013.1 |
| 20260902222405 | 35 | 240 | 9.7 | 22.5 | 0.00 | 0.00 | 0.00 | 51 | 1013.1 |
| 20260902221523 | 35 | 240 | 14.5 | 33.8 | 0.00 | 0.00 | 0.00 | 50 | 1013.2 |
| 20260902220746 | 35 | 233 | 14.5 | 33.8 | 0.00 | 0.00 | 0.00 | 49 | 1013.2 |
| 20260902220239 | 35 | 282 | 12.9 | 32.2 | 0.00 | 0.00 | 0.00 | 50 | 1013.1 |
| 20260902215734 | 35 | 295 | 12.9 | 29.0 | 0.00 | 0.00 | 0.00 | 50 | 1013.1 |
| 20260902215228 | 35 | 274 | 12.9 | 32.2 | 0.00 | 0.00 | 0.00 | 49 | 1013.2 |
| 20260902214721 | 35 | 262 | 12.9 | 32.2 | 0.00 | 0.00 | 0.00 | 49 | 1013.1 |
| 20260902214216 | 35 | 239 | 11.3 | 29.0 | 0.00 | 0.00 | 0.00 | 48 | 1013.2 |
| 20260902213710 | 35 | 275 | 14.5 | 30.6 | 0.00 | 0.00 | 0.00 | 49 | 1013.2 |
| 20260902213204 | 35 | 284 | 14.5 | 33.8 | 0.00 | 0.00 | 0.00 | 49 | 1013.2 |
| 20260902212658 | 35 | 266 | 11.3 | 33.8 | 0.00 | 0.00 | 0.00 | 48 | 1013.2 |
| 20260902212423 | 35 | 221 | 11.3 | 29.0 | 0.00 | 0.00 | 0.00 | 47 | 1013.2 |
| 20260902211916 | 35 | 252 | 9.7 | 29.0 | 0.00 | 0.00 | 0.00 | 47 | 1013.2 |
| 20260902211140 | 36 | 217 | 9.7 | 24.1 | 0.00 | 0.00 | 0.00 | 47 | 1013.2 |
| 20260902210634 | 36 | 260 | 8.0 | 24.1 | 0.00 | 0.00 | 0.00 | 47 | 1013.1 |
| 20260902210128 | 36 | 255 | 6.4 | 17.7 | 0.00 | 0.00 | 0.00 | 48 | 1013.2 |
| 20260902205622 | 36 | 231 | 8.0 | 22.5 | 0.00 | 0.00 | 0.00 | 48 | 1013.3 |
| 20260902205116 | 36 | 239 | 11.3 | 27.4 | 0.00 | 0.00 | 0.00 | 47 | 1013.3 |
| 20260902204840 | 36 | 297 | 14.5 | 27.4 | 0.00 | 0.00 | 0.00 | 46 | 1013.3 |
| 20260902204104 | 36 | 240 | 14.5 | 29.0 | 0.00 | 0.00 | 0.00 | 47 | 1013.5 |
| 20260902203557 | 36 | 263 | 11.3 | 29.0 | 0.00 | 0.00 | 0.00 | 46 | 1013.4 |
| 20260902203052 | 36 | 215 | 9.7 | 38.6 | 0.00 | 0.00 | 0.00 | 46 | 1013.4 |
| 20260902202546 | 36 | 231 | 11.3 | 32.2 | 0.00 | 0.00 | 0.00 | 46 | 1013.5 |
| 20260902202041 | 35 | 219 | 11.3 | 27.4 | 0.00 | 0.00 | 0.00 | 48 | 1013.5 |
| 20260902201533 | 35 | 256 | 9.7 | 27.4 | 0.00 | 0.00 | 0.00 | 47 | 1013.5 |
| 20260902201027 | 35 | 297 | 9.7 | 22.5 | 0.00 | 0.00 | 0.00 | 47 | 1013.6 |
| 20260902200522 | 36 | 241 | 8.0 | 20.9 | 0.00 | 0.00 | 0.00 | 47 | 1013.6 |
| 20260902200246 | 36 | 283 | 8.0 | 27.4 | 0.00 | 0.00 | 0.00 | 45 | 1013.7 |
| 20260902195510 | 36 | 301 | 8.0 | 27.4 | 0.00 | 0.00 | 0.00 | 45 | 1013.8 |
| 20260902195004 | 36 | 175 | 8.0 | 27.4 | 0.00 | 0.00 | 0.00 | 47 | 1013.8 |
| 20260902194457 | 36 | 253 | 11.3 | 29.0 | 0.00 | 0.00 | 0.00 | 48 | 1013.8 |
| 20260902193952 | 35 | 254 | 11.3 | 29.0 | 0.00 | 0.00 | 0.00 | 47 | 1014.1 |
| 20260902193716 | 36 | 297 | 11.3 | 27.4 | 0.00 | 0.00 | 0.00 | 48 | 1014.1 |
| 20260902192940 | 36 | 243 | 9.7 | 27.4 | 0.00 | 0.00 | 0.00 | 46 | 1014.0 |
| 20260902192434 | 36 | 259 | 8.0 | 19.3 | 0.00 | 0.00 | 0.00 | 47 | 1014.2 |
| 20260902191928 | 36 | 232 | 8.0 | 24.1 | 0.00 | 0.00 | 0.00 | 47 | 1014.3 |
| 20260902191422 | 36 | 224 | 9.7 | 24.1 | 0.00 | 0.00 | 0.00 | 48 | 1014.2 |
| 20260902190915 | 36 | 221 | 9.7 | 24.1 | 0.00 | 0.00 | 0.00 | 48 | 1014.2 |
| 20260902190410 | 36 | 219 | 6.4 | 32.2 | 0.00 | 0.00 | 0.00 | 48 | 1014.4 |
| 20260902185904 | 36 | 229 | 6.4 | 32.2 | 0.00 | 0.00 | 0.00 | 48 | 1014.4 |
| 20260902185358 | 36 | 170 | 6.4 | 16.1 | 0.00 | 0.00 | 0.00 | 49 | 1014.3 |
| 20260902184852 | 36 | 266 | 6.4 | 16.1 | 0.00 | 0.00 | 0.00 | 49 | 1014.3 |
| 20260902184345 | 36 | 238 | 6.4 | 16.1 | 0.00 | 0.00 | 0.00 | 52 | 1014.3 |
| 20260902183840 | 36 | 300 | 6.4 | 16.1 | 0.00 | 0.00 | 0.00 | 50 | 1014.3 |
| 20260902183334 | 35 | 274 | 9.7 | 25.7 | 0.00 | 0.00 | 0.00 | 52 | 1014.4 |
| 20260902182828 | 35 | 188 | 11.3 | 27.4 | 0.00 | 0.00 | 0.00 | 51 | 1014.6 |
| 20260902182322 | 35 | 255 | 9.7 | 25.7 | 0.00 | 0.00 | 0.00 | 51 | 1014.6 |
| 20260902181816 | 35 | 295 | 8.0 | 25.7 | 0.00 | 0.00 | 0.00 | 52 | 1014.7 |
| 20260902181309 | 35 | 263 | 4.8 | 25.7 | 0.00 | 0.00 | 0.00 | 53 | 1014.8 |
| 20260902180804 | 35 | 256 | 6.4 | 22.5 | 0.00 | 0.00 | 0.00 | 55 | 1014.8 |
| 20260902180258 | 34 | 279 | 8.0 | 22.5 | 0.00 | 0.00 | 0.00 | 56 | 1014.9 |
| 20260902175751 | 34 | 250 | 8.0 | 17.7 | 0.00 | 0.00 | 0.00 | 56 | 1015.0 |
| 20260902175246 | 33 | 293 | 9.7 | 17.7 | 0.00 | 0.00 | 0.00 | 56 | 1015.1 |
| 20260902174741 | 34 | 236 | 8.0 | 24.1 | 0.00 | 0.00 | 0.00 | 55 | 1015.1 |
| 20260902174735 | 34 | 303 | 8.0 | 24.1 | 0.00 | 0.00 | 0.00 | 55 | 1015.1 |
| 20260902173728 | 35 | 303 | 8.0 | 24.1 | 0.00 | 0.00 | 0.00 | 54 | 1015.2 |
| 20260902173222 | 35 | 247 | 12.9 | 27.4 | 0.00 | 0.00 | 0.00 | 53 | 1015.3 |
| 20260902172716 | 35 | 255 | 11.3 | 27.4 | 0.00 | 0.00 | 0.00 | 51 | 1015.4 |
| 20260902172210 | 35 | 315 | 9.7 | 20.9 | 0.00 | 0.00 | 0.00 | 54 | 1015.4 |
| 20260902171704 | 35 | 286 | 9.7 | 19.3 | 0.00 | 0.00 | 0.00 | 54 | 1015.4 |
| 20260902171157 | 35 | 252 | 8.0 | 20.9 | 0.00 | 0.00 | 0.00 | 53 | 1015.6 |
| 20260902170651 | 35 | 238 | 8.0 | 22.5 | 0.00 | 0.00 | 0.00 | 53 | 1015.6 |
| 20260902170145 | 35 | 240 | 6.4 | 22.5 | 0.00 | 0.00 | 0.00 | 52 | 1015.6 |
| 20260902165640 | 35 | 252 | 4.8 | 14.5 | 0.00 | 0.00 | 0.00 | 56 | 1015.7 |
| 20260902165135 | 35 | 231 | 6.4 | 20.9 | 0.00 | 0.00 | 0.00 | 56 | 1015.7 |
| 20260902164635 | 34 | 83 | 8.0 | 20.9 | 0.00 | 0.00 | 0.00 | 55 | 1015.7 |
| 20260902164136 | 35 | 253 | 6.4 | 19.3 | 0.00 | 0.00 | 0.00 | 55 | 1015.8 |
| 20260902163908 | 34 | 238 | 6.4 | 17.7 | 0.00 | 0.00 | 0.00 | 56 | 1015.8 |
| 20260902163406 | 35 | 250 | 4.8 | 17.7 | 0.00 | 0.00 | 0.00 | 55 | 1015.8 |
| 20260902162632 | 35 | 236 | 4.8 | 17.7 | 0.00 | 0.00 | 0.00 | 57 | 1015.9 |
| 20260902162133 | 35 | 269 | 3.2 | 17.7 | 0.00 | 0.00 | 0.00 | 56 | 1016.0 |
| 20260902161633 | 35 | 254 | 3.2 | 12.9 | 0.00 | 0.00 | 0.00 | 57 | 1016.0 |
| 20260902161132 | 34 | 211 | 4.8 | 12.9 | 0.00 | 0.00 | 0.00 | 57 | 1016.0 |
| 20260902160634 | 34 | 236 | 4.8 | 16.1 | 0.00 | 0.00 | 0.00 | 58 | 1016.1 |
| 20260902160133 | 34 | 252 | 3.2 | 16.1 | 0.00 | 0.00 | 0.00 | 57 | 1016.1 |
| 20260902155632 | 34 | 197 | 6.4 | 17.7 | 0.00 | 0.00 | 0.00 | 60 | 1016.1 |
| 20260902155133 | 33 | 291 | 8.0 | 17.7 | 0.00 | 0.00 | 0.00 | 58 | 1016.0 |
| 20260902154633 | 33 | 250 | 8.0 | 17.7 | 0.00 | 0.00 | 0.00 | 58 | 1016.0 |
| 20260902154133 | 33 | 252 | 6.4 | 17.7 | 0.00 | 0.00 | 0.00 | 58 | 1016.2 |
| 20260902153634 | 33 | 233 | 4.8 | 16.1 | 0.00 | 0.00 | 0.00 | 60 | 1016.1 |
| 20260902153128 | 33 | 241 | 4.8 | 17.7 | 0.00 | 0.00 | 0.00 | 61 | 1016.1 |
| 20260902152621 | 32 | 282 | 6.4 | 17.7 | 0.00 | 0.00 | 0.00 | 62 | 1016.1 |
| 20260902152351 | 32 | 236 | 6.4 | 17.7 | 0.00 | 0.00 | 0.00 | 62 | 1016.0 |
| 20260902151620 | 32 | 222 | 4.8 | 17.7 | 0.00 | 0.00 | 0.00 | 62 | 1016.0 |
| 20260902151121 | 32 | 224 | 6.4 | 19.3 | 0.00 | 0.00 | 0.00 | 63 | 1016.1 |
| 20260902150622 | 32 | 319 | 4.8 | 19.3 | 0.00 | 0.00 | 0.00 | 62 | 1016.0 |
| 20260902150122 | 32 | 278 | 4.8 | 11.3 | 0.00 | 0.00 | 0.00 | 64 | 1016.1 |
| 20260902145620 | 31 | 344 | 4.8 | 16.1 | 0.00 | 0.00 | 0.00 | 65 | 1016.0 |
| 20260902145121 | 31 | 271 | 4.8 | 16.1 | 0.00 | 0.00 | 0.00 | 65 | 1016.0 |
| 20260902144621 | 31 | 150 | 4.8 | 14.5 | 0.00 | 0.00 | 0.00 | 66 | 1016.0 |
| 20260902144123 | 31 | 235 | 4.8 | 14.5 | 0.00 | 0.00 | 0.00 | 66 | 1016.1 |
| 20260902143725 | 31 | 316 | 3.2 | 12.9 | 0.00 | 0.00 | 0.00 | 67 | 1016.0 |
| 20260902143624 | 31 | 261 | 3.2 | 12.9 | 0.00 | 0.00 | 0.00 | 68 | 1016.0 |
| 20260902143358 | 30 | 302 | 4.8 | 11.3 | 0.00 | 0.00 | 0.00 | 69 | 1016.2 |
| 20260902143353 | 30 | 276 | 3.2 | 11.3 | 0.00 | 0.00 | 0.00 | 73 | 1015.9 |
| 20260902142905 | 30 | 226 | 4.8 | 11.3 | 0.00 | 0.00 | 0.00 | 70 | 1016.1 |
| 20260902142800 | 30 | 283 | 3.2 | 11.3 | 0.00 | 0.00 | 0.00 | 72 | 1016.0 |
| 20260902141121 | 30 | 276 | 3.2 | 11.3 | 0.00 | 0.00 | 0.00 | 73 | 1015.9 |
| 20260902140618 | 29 | 283 | 3.2 | 11.3 | 0.00 | 0.00 | 0.00 | 74 | 1016.0 |
| 20260902140350 | 29 | 272 | 3.2 | 11.3 | 0.00 | 0.00 | 0.00 | 74 | 1016.0 |
| 20260902135849 | 28 | 222 | 3.2 | 11.3 | 0.00 | 0.00 | 0.00 | 75 | 1016.1 |
| 20260902135119 | 28 | 243 | 4.8 | 11.3 | 0.00 | 0.00 | 0.00 | 76 | 1016.3 |
| 20260902134619 | 28 | 303 | 6.4 | 14.5 | 0.00 | 0.00 | 0.00 | 76 | 1016.2 |
| 20260902134120 | 28 | 295 | 6.4 | 14.5 | 0.00 | 0.00 | 0.00 | 77 | 1016.3 |
| 20260902133614 | 28 | 267 | 6.4 | 12.9 | 0.00 | 0.00 | 0.00 | 77 | 1016.3 |
| 20260902133115 | 27 | 278 | 6.4 | 14.5 | 0.00 | 0.00 | 0.00 | 77 | 1016.3 |
| 20260902132616 | 27 | 281 | 4.8 | 14.5 | 0.00 | 0.00 | 0.00 | 77 | 1016.3 |
| 20260902132346 | 27 | 283 | 3.2 | 14.5 | 0.00 | 0.00 | 0.00 | 78 | 1016.3 |
| 20260902131615 | 27 | 241 | 4.8 | 14.5 | 0.00 | 0.00 | 0.00 | 78 | 1016.2 |
| 20260902131115 | 27 | 244 | 3.2 | 12.9 | 0.00 | 0.00 | 0.00 | 79 | 1016.2 |
| 20260902130616 | 27 | 231 | 3.2 | 8.0 | 0.00 | 0.00 | 0.00 | 80 | 1016.1 |
| 20260902130115 | 27 | 255 | 3.2 | 8.0 | 0.00 | 0.00 | 0.00 | 80 | 1016.0 |
| 20260902125616 | 26 | 243 | 1.6 | 8.0 | 0.00 | 0.00 | 0.00 | 80 | 1016.0 |
| 20260902125346 | 26 | 250 | 1.6 | 6.4 | 0.00 | 0.00 | 0.00 | 82 | 1016.1 |
| 20260902124615 | 26 | 246 | 1.6 | 9.7 | 0.00 | 0.00 | 0.00 | 82 | 1016.0 |
| 20260902124115 | 26 | 255 | 1.6 | 9.7 | 0.00 | 0.00 | 0.00 | 82 | 1016.0 |
| 20260902123615 | 26 | 202 | 1.6 | 8.0 | 0.00 | 0.00 | 0.00 | 83 | 1016.0 |
| 20260902123114 | 26 | 243 | 1.6 | 8.0 | 0.00 | 0.00 | 0.00 | 83 | 1016.0 |
| 20260902122847 | 26 | 229 | 1.6 | 8.0 | 0.00 | 0.00 | 0.00 | 84 | 1016.0 |
| 20260902122115 | 25 | 235 | 1.6 | 8.0 | 0.00 | 0.00 | 0.00 | 84 | 1016.0 |
| 20260902121615 | 25 | 243 | 1.6 | 8.0 | 0.00 | 0.00 | 0.00 | 84 | 1016.1 |
| 20260902121115 | 25 | 239 | 1.6 | 9.7 | 0.00 | 0.00 | 0.00 | 85 | 1016.1 |
| 20260902120614 | 25 | 215 | 1.6 | 9.7 | 0.00 | 0.00 | 0.00 | 85 | 1016.0 |
| 20260902120116 | 25 | 238 | 1.6 | 8.0 | 0.00 | 0.00 | 0.00 | 85 | 1015.9 |
| 20260902115615 | 25 | 233 | 1.6 | 4.8 | 0.00 | 0.00 | 0.00 | 85 | 1016.0 |
| 20260902115114 | 25 | 252 | 1.6 | 9.7 | 0.00 | 0.00 | 0.00 | 85 | 1015.9 |
| 20260902114622 | 25 | 226 | 1.6 | 9.7 | 0.00 | 0.00 | 0.00 | 85 | 1015.9 |
| 20260902114614 | 25 | 274 | 1.6 | 9.7 | 0.00 | 0.00 | 0.00 | 85 | 1016.0 |
| 20260902113615 | 25 | 239 | 1.6 | 9.7 | 0.00 | 0.00 | 0.00 | 86 | 1016.0 |
| 20260902113116 | 25 | 248 | 0.0 | 6.4 | 0.00 | 0.00 | 0.00 | 86 | 1016.0 |
| 20260902112611 | 25 | 266 | 1.6 | 6.4 | 0.00 | 0.00 | 0.00 | 86 | 1016.0 |
| 20260902112112 | 25 | 248 | 1.6 | 8.0 | 0.00 | 0.00 | 0.00 | 86 | 1016.1 |
| 20260902111846 | 25 | 268 | 1.6 | 8.0 | 0.00 | 0.00 | 0.00 | 86 | 1016.3 |
| 20260902111110 | 25 | 257 | 1.6 | 6.4 | 0.00 | 0.00 | 0.00 | 86 | 1016.4 |
| 20260902110612 | 25 | 240 | 1.6 | 4.8 | 0.00 | 0.00 | 0.00 | 86 | 1016.2 |
| 20260902110111 | 25 | 270 | 0.0 | 4.8 | 0.00 | 0.00 | 0.00 | 86 | 1016.2 |
| 20260902105846 | 25 | 247 | 1.6 | 8.0 | 0.00 | 0.00 | 0.00 | 85 | 1015.9 |
| 20260902105611 | 25 | 301 | 1.6 | 6.4 | 0.00 | 0.00 | 0.00 | 85 | 1016.2 |
| 20260902104611 | 25 | 234 | 0.0 | 8.0 | 0.00 | 0.00 | 0.00 | 85 | 1015.8 |
| 20260902104606 | 25 | 229 | 1.6 | 4.8 | 0.00 | 0.00 | 0.00 | 85 | 1016.0 |
| 20260902103557 | 25 | 259 | 1.6 | 9.7 | 0.00 | 0.00 | 0.00 | 84 | 1015.9 |
| 20260902103050 | 25 | 232 | 1.6 | 9.7 | 0.00 | 0.00 | 0.00 | 84 | 1016.0 |
| 20260902102551 | 25 | 276 | 1.6 | 8.0 | 0.00 | 0.00 | 0.00 | 84 | 1015.9 |
| 20260902102051 | 25 | 220 | 1.6 | 8.0 | 0.00 | 0.00 | 0.00 | 84 | 1015.9 |
| 20260902101551 | 25 | 229 | 0.0 | 4.8 | 0.00 | 0.00 | 0.00 | 84 | 1015.8 |
| 20260902101055 | 25 | 265 | 0.0 | 3.2 | 0.00 | 0.00 | 0.00 | 85 | 1015.8 |
| 20260902101050 | 25 | 231 | 0.0 | 3.2 | 0.00 | 0.00 | 0.00 | 85 | 1015.8 |
| 20260902100058 | 25 | 259 | 1.6 | 9.7 | 0.00 | 0.00 | 0.00 | 85 | 1015.8 |
| 20260902100051 | 25 | 210 | 0.0 | 6.4 | 0.00 | 0.00 | 0.00 | 85 | 1015.7 |
| 20260902095050 | 25 | 228 | 1.6 | 9.7 | 0.00 | 0.00 | 0.00 | 85 | 1015.7 |
| 20260902094550 | 25 | 198 | 1.6 | 9.7 | 0.00 | 0.00 | 0.00 | 85 | 1015.7 |
| 20260902094047 | 25 | 245 | 1.6 | 9.7 | 0.00 | 0.00 | 0.00 | 85 | 1015.7 |
| 20260902093818 | 25 | 255 | 0.0 | 4.8 | 0.00 | 0.00 | 0.00 | 85 | 1015.8 |
| 20260902093046 | 25 | 105 | 0.0 | 6.4 | 0.00 | 0.00 | 0.00 | 84 | 1015.8 |
| 20260902092817 | 25 | 186 | 1.6 | 11.3 | 0.00 | 0.00 | 0.00 | 84 | 1015.9 |
| 20260902092043 | 25 | 224 | 3.2 | 11.3 | 0.00 | 0.00 | 0.00 | 84 | 1015.8 |
| 20260902091543 | 25 | 271 | 1.6 | 6.4 | 0.00 | 0.00 | 0.00 | 84 | 1015.9 |
| 20260902091044 | 25 | 182 | 1.6 | 6.4 | 0.00 | 0.00 | 0.00 | 84 | 1015.8 |
| 20260902090542 | 25 | 264 | 1.6 | 6.4 | 0.00 | 0.00 | 0.00 | 84 | 1015.8 |
| 20260902090036 | 25 | 252 | 1.6 | 8.0 | 0.00 | 0.00 | 0.00 | 84 | 1015.8 |
| 20260902085529 | 25 | 201 | 3.2 | 8.0 | 0.00 | 0.00 | 0.00 | 84 | 1015.7 |
| 20260902085023 | 25 | 223 | 1.6 | 8.0 | 0.00 | 0.00 | 0.00 | 84 | 1015.6 |
| 20260902084517 | 25 | 172 | 0.0 | 4.8 | 0.00 | 0.00 | 0.00 | 84 | 1015.6 |
| 20260902084011 | 25 | 266 | 0.0 | 1.6 | 0.00 | 0.00 | 0.00 | 83 | 1015.7 |
| 20260902083505 | 25 | 183 | 0.0 | 1.6 | 0.00 | 0.00 | 0.00 | 83 | 1015.7 |
| 20260902082959 | 25 | 191 | 0.0 | 1.6 | 0.00 | 0.00 | 0.00 | 83 | 1015.8 |
| 20260902082453 | 25 | 153 | 0.0 | 1.6 | 0.00 | 0.00 | 0.00 | 83 | 1015.6 |
| 20260902081948 | 25 | 226 | 0.0 | 6.4 | 0.00 | 0.00 | 0.00 | 83 | 1015.7 |
| 20260902081943 | 25 | 250 | 0.0 | 6.4 | 0.00 | 0.00 | 0.00 | 83 | 1015.6 |
| 20260902080935 | 25 | 250 | 0.0 | 1.6 | 0.00 | 0.00 | 0.00 | 83 | 1015.4 |
| 20260902080429 | 25 | 228 | 0.0 | 1.6 | 0.00 | 0.00 | 0.00 | 82 | 1015.2 |
| 20260902075923 | 25 | 157 | 0.0 | 1.6 | 0.00 | 0.00 | 0.00 | 82 | 1015.2 |
| 20260902075417 | 25 | 167 | 0.0 | 1.6 | 0.00 | 0.00 | 0.00 | 82 | 1015.2 |
| 20260902074911 | 25 | 136 | 0.0 | 1.6 | 0.00 | 0.00 | 0.00 | 82 | 1015.3 |
| 20260902074405 | 25 | 174 | 0.0 | 1.6 | 0.00 | 0.00 | 0.00 | 82 | 1015.4 |
| 20260902073859 | 25 | 205 | 0.0 | 1.6 | 0.00 | 0.00 | 0.00 | 82 | 1015.6 |